sensor_id;sensor_type;location;lat;lon;timestamp;temperature;humidity
16441;DHT22;8330;-33.858;151.184;2022-08-24T00:00:06;13.50;99.90
16441;DHT22;8330;-33.858;151.184;2022-08-24T00:02:38;13.60;99.90
16441;DHT22;8330;-33.858;151.184;2022-08-24T00:05:11;13.70;99.90
16441;DHT22;8330;-33.858;151.184;2022-08-24T00:07:42;13.90;99.90
16441;DHT22;8330;-33.858;151.184;2022-08-24T00:10:14;13.90;99.90
16441;DHT22;8330;-33.858;151.184;2022-08-24T00:12:44;14.00;99.90
16441;DHT22;8330;-33.858;151.184;2022-08-24T00:15:17;14.10;99.90
16441;DHT22;8330;-33.858;151.184;2022-08-24T00:17:47;14.00;99.90
16441;DHT22;8330;-33.858;151.184;2022-08-24T00:20:20;13.90;99.90
16441;DHT22;8330;-33.858;151.184;2022-08-24T00:22:51;14.10;99.90
16441;DHT22;8330;-33.858;151.184;2022-08-24T00:25:22;14.20;99.90
16441;DHT22;8330;-33.858;151.184;2022-08-24T00:27:53;14.40;99.90
16441;DHT22;8330;-33.858;151.184;2022-08-24T00:30:24;14.50;99.90
16441;DHT22;8330;-33.858;151.184;2022-08-24T00:32:55;14.30;99.90
16441;DHT22;8330;-33.858;151.184;2022-08-24T00:35:28;14.40;99.90
16441;DHT22;8330;-33.858;151.184;2022-08-24T00:37:59;14.50;99.90
16441;DHT22;8330;-33.858;151.184;2022-08-24T00:40:33;14.50;99.90
16441;DHT22;8330;-33.858;151.184;2022-08-24T00:43:05;14.40;99.90
16441;DHT22;8330;-33.858;151.184;2022-08-24T00:45:41;14.50;99.90
16441;DHT22;8330;-33.858;151.184;2022-08-24T00:48:16;14.60;99.90
16441;DHT22;8330;-33.858;151.184;2022-08-24T00:50:52;14.70;99.90
16441;DHT22;8330;-33.858;151.184;2022-08-24T00:53:27;14.80;99.90
16441;DHT22;8330;-33.858;151.184;2022-08-24T00:56:03;14.90;99.90
16441;DHT22;8330;-33.858;151.184;2022-08-24T00:58:46;15.10;99.90
16441;DHT22;8330;-33.858;151.184;2022-08-24T01:01:18;15.20;99.90
16441;DHT22;8330;-33.858;151.184;2022-08-24T01:03:50;15.30;99.90
16441;DHT22;8330;-33.858;151.184;2022-08-24T01:06:23;15.20;99.90
16441;DHT22;8330;-33.858;151.184;2022-08-24T01:08:54;15.20;99.90
16441;DHT22;8330;-33.858;151.184;2022-08-24T01:11:26;15.20;99.90
16441;DHT22;8330;-33.858;151.184;2022-08-24T01:14:02;15.30;99.90
16441;DHT22;8330;-33.858;151.184;2022-08-24T01:16:33;15.40;99.90
16441;DHT22;8330;-33.858;151.184;2022-08-24T01:19:28;15.40;99.90
16441;DHT22;8330;-33.858;151.184;2022-08-24T01:22:15;15.50;99.90
16441;DHT22;8330;-33.858;151.184;2022-08-24T01:24:51;15.30;99.90
16441;DHT22;8330;-33.858;151.184;2022-08-24T01:27:22;15.40;99.90
16441;DHT22;8330;-33.858;151.184;2022-08-24T01:29:54;15.70;99.90
16441;DHT22;8330;-33.858;151.184;2022-08-24T01:32:25;15.80;99.90
16441;DHT22;8330;-33.858;151.184;2022-08-24T01:34:57;15.90;99.90
16441;DHT22;8330;-33.858;151.184;2022-08-24T01:37:28;15.90;99.90
16441;DHT22;8330;-33.858;151.184;2022-08-24T01:40:04;16.00;99.90
16441;DHT22;8330;-33.858;151.184;2022-08-24T01:42:36;16.10;99.90
16441;DHT22;8330;-33.858;151.184;2022-08-24T01:45:07;16.20;99.90
16441;DHT22;8330;-33.858;151.184;2022-08-24T01:47:38;16.30;99.90
16441;DHT22;8330;-33.858;151.184;2022-08-24T01:50:09;16.40;99.90
16441;DHT22;8330;-33.858;151.184;2022-08-24T01:52:41;16.40;99.90
16441;DHT22;8330;-33.858;151.184;2022-08-24T01:55:15;16.40;99.90
16441;DHT22;8330;-33.858;151.184;2022-08-24T01:57:46;16.50;99.90
16441;DHT22;8330;-33.858;151.184;2022-08-24T02:00:17;16.40;99.90
16441;DHT22;8330;-33.858;151.184;2022-08-24T02:02:48;16.30;99.90
16441;DHT22;8330;-33.858;151.184;2022-08-24T02:05:19;16.50;99.90
16441;DHT22;8330;-33.858;151.184;2022-08-24T02:07:51;16.50;99.90
16441;DHT22;8330;-33.858;151.184;2022-08-24T02:10:25;16.60;99.90
16441;DHT22;8330;-33.858;151.184;2022-08-24T02:12:56;16.60;99.90
16441;DHT22;8330;-33.858;151.184;2022-08-24T02:15:29;16.60;99.90
16441;DHT22;8330;-33.858;151.184;2022-08-24T02:18:05;16.60;99.90
16441;DHT22;8330;-33.858;151.184;2022-08-24T02:20:36;16.60;99.90
16441;DHT22;8330;-33.858;151.184;2022-08-24T02:23:07;16.60;99.90
16441;DHT22;8330;-33.858;151.184;2022-08-24T02:25:40;16.70;99.90
16441;DHT22;8330;-33.858;151.184;2022-08-24T02:28:11;16.60;99.90
16441;DHT22;8330;-33.858;151.184;2022-08-24T02:30:42;16.60;99.90
16441;DHT22;8330;-33.858;151.184;2022-08-24T02:33:13;16.40;99.90
16441;DHT22;8330;-33.858;151.184;2022-08-24T02:35:44;16.60;99.90
16441;DHT22;8330;-33.858;151.184;2022-08-24T02:38:14;16.60;99.90
16441;DHT22;8330;-33.858;151.184;2022-08-24T02:40:49;16.70;99.90
16441;DHT22;8330;-33.858;151.184;2022-08-24T02:43:20;16.80;99.90
16441;DHT22;8330;-33.858;151.184;2022-08-24T02:45:51;17.00;99.90
16441;DHT22;8330;-33.858;151.184;2022-08-24T02:48:22;17.00;99.90
16441;DHT22;8330;-33.858;151.184;2022-08-24T02:50:53;17.00;99.90
16441;DHT22;8330;-33.858;151.184;2022-08-24T02:53:24;17.00;99.90
16441;DHT22;8330;-33.858;151.184;2022-08-24T02:55:56;17.10;99.90
16441;DHT22;8330;-33.858;151.184;2022-08-24T02:58:27;17.10;99.90
16441;DHT22;8330;-33.858;151.184;2022-08-24T03:00:58;17.20;99.90
16441;DHT22;8330;-33.858;151.184;2022-08-24T03:03:28;17.30;99.90
16441;DHT22;8330;-33.858;151.184;2022-08-24T03:05:59;17.40;99.90
16441;DHT22;8330;-33.858;151.184;2022-08-24T03:08:30;17.20;99.90
16441;DHT22;8330;-33.858;151.184;2022-08-24T03:11:03;17.10;99.90
16441;DHT22;8330;-33.858;151.184;2022-08-24T03:13:35;17.00;99.90
16441;DHT22;8330;-33.858;151.184;2022-08-24T03:16:06;17.20;99.90
16441;DHT22;8330;-33.858;151.184;2022-08-24T03:18:37;17.20;99.90
16441;DHT22;8330;-33.858;151.184;2022-08-24T03:21:09;17.40;99.90
16441;DHT22;8330;-33.858;151.184;2022-08-24T03:23:39;17.50;99.90
16441;DHT22;8330;-33.858;151.184;2022-08-24T03:26:12;17.60;99.90
16441;DHT22;8330;-33.858;151.184;2022-08-24T03:28:43;17.50;99.90
16441;DHT22;8330;-33.858;151.184;2022-08-24T03:31:14;17.40;99.90
16441;DHT22;8330;-33.858;151.184;2022-08-24T03:33:45;17.40;99.90
16441;DHT22;8330;-33.858;151.184;2022-08-24T03:36:16;17.50;99.90
16441;DHT22;8330;-33.858;151.184;2022-08-24T03:38:47;17.70;99.90
16441;DHT22;8330;-33.858;151.184;2022-08-24T03:41:20;17.80;99.90
16441;DHT22;8330;-33.858;151.184;2022-08-24T03:43:50;17.80;99.90
16441;DHT22;8330;-33.858;151.184;2022-08-24T03:46:24;17.80;99.90
16441;DHT22;8330;-33.858;151.184;2022-08-24T03:48:56;17.70;99.90
16441;DHT22;8330;-33.858;151.184;2022-08-24T03:51:28;17.70;99.90
16441;DHT22;8330;-33.858;151.184;2022-08-24T03:54:00;17.50;99.90
16441;DHT22;8330;-33.858;151.184;2022-08-24T03:56:33;17.50;99.90
16441;DHT22;8330;-33.858;151.184;2022-08-24T03:59:04;17.30;99.90
16441;DHT22;8330;-33.858;151.184;2022-08-24T04:01:35;17.30;99.90
16441;DHT22;8330;-33.858;151.184;2022-08-24T04:04:06;17.30;99.90
16441;DHT22;8330;-33.858;151.184;2022-08-24T04:06:37;17.30;99.90
16441;DHT22;8330;-33.858;151.184;2022-08-24T04:09:11;17.30;99.90
16441;DHT22;8330;-33.858;151.184;2022-08-24T04:11:44;17.40;99.90
16441;DHT22;8330;-33.858;151.184;2022-08-24T04:14:16;17.30;99.90
16441;DHT22;8330;-33.858;151.184;2022-08-24T04:16:47;17.30;99.90
16441;DHT22;8330;-33.858;151.184;2022-08-24T04:19:18;17.40;99.90
16441;DHT22;8330;-33.858;151.184;2022-08-24T04:21:48;17.40;99.90
16441;DHT22;8330;-33.858;151.184;2022-08-24T04:24:20;17.30;99.90
16441;DHT22;8330;-33.858;151.184;2022-08-24T04:26:53;17.30;99.90
16441;DHT22;8330;-33.858;151.184;2022-08-24T04:29:23;17.30;99.90
16441;DHT22;8330;-33.858;151.184;2022-08-24T04:31:54;17.20;99.90
16441;DHT22;8330;-33.858;151.184;2022-08-24T04:34:25;17.20;99.90
16441;DHT22;8330;-33.858;151.184;2022-08-24T04:36:56;17.20;99.90
16441;DHT22;8330;-33.858;151.184;2022-08-24T04:39:27;17.20;99.90
16441;DHT22;8330;-33.858;151.184;2022-08-24T04:41:59;17.00;99.90
16441;DHT22;8330;-33.858;151.184;2022-08-24T04:44:30;17.10;99.90
16441;DHT22;8330;-33.858;151.184;2022-08-24T04:47:01;17.10;99.90
16441;DHT22;8330;-33.858;151.184;2022-08-24T04:49:32;17.10;99.90
16441;DHT22;8330;-33.858;151.184;2022-08-24T04:52:06;17.10;99.90
16441;DHT22;8330;-33.858;151.184;2022-08-24T04:54:37;17.10;99.90
16441;DHT22;8330;-33.858;151.184;2022-08-24T04:57:09;17.10;99.90
16441;DHT22;8330;-33.858;151.184;2022-08-24T04:59:41;17.10;99.90
16441;DHT22;8330;-33.858;151.184;2022-08-24T05:02:12;17.00;99.90
16441;DHT22;8330;-33.858;151.184;2022-08-24T05:04:42;17.10;99.90
16441;DHT22;8330;-33.858;151.184;2022-08-24T05:07:13;17.10;99.90
16441;DHT22;8330;-33.858;151.184;2022-08-24T05:09:45;17.10;99.90
16441;DHT22;8330;-33.858;151.184;2022-08-24T05:12:17;17.10;99.90
16441;DHT22;8330;-33.858;151.184;2022-08-24T05:14:48;17.10;99.90
16441;DHT22;8330;-33.858;151.184;2022-08-24T05:17:19;17.10;99.90
16441;DHT22;8330;-33.858;151.184;2022-08-24T05:19:50;17.10;99.90
16441;DHT22;8330;-33.858;151.184;2022-08-24T05:22:21;17.10;99.90
16441;DHT22;8330;-33.858;151.184;2022-08-24T05:24:52;17.10;99.90
16441;DHT22;8330;-33.858;151.184;2022-08-24T05:27:24;17.00;99.90
16441;DHT22;8330;-33.858;151.184;2022-08-24T05:29:56;17.00;99.90
16441;DHT22;8330;-33.858;151.184;2022-08-24T05:32:26;16.90;99.90
16441;DHT22;8330;-33.858;151.184;2022-08-24T05:34:59;16.90;99.90
16441;DHT22;8330;-33.858;151.184;2022-08-24T05:37:31;16.80;99.90
16441;DHT22;8330;-33.858;151.184;2022-08-24T05:40:06;16.80;99.90
16441;DHT22;8330;-33.858;151.184;2022-08-24T05:42:40;16.80;99.90
16441;DHT22;8330;-33.858;151.184;2022-08-24T05:45:11;16.80;99.90
16441;DHT22;8330;-33.858;151.184;2022-08-24T05:47:42;16.80;99.90
16441;DHT22;8330;-33.858;151.184;2022-08-24T05:50:13;16.90;99.90
16441;DHT22;8330;-33.858;151.184;2022-08-24T05:52:43;17.00;99.90
16441;DHT22;8330;-33.858;151.184;2022-08-24T05:55:14;17.00;99.90
16441;DHT22;8330;-33.858;151.184;2022-08-24T05:57:47;16.80;99.90
16441;DHT22;8330;-33.858;151.184;2022-08-24T06:00:18;16.80;99.90
16441;DHT22;8330;-33.858;151.184;2022-08-24T06:02:50;16.90;99.90
16441;DHT22;8330;-33.858;151.184;2022-08-24T06:05:22;16.90;99.90
16441;DHT22;8330;-33.858;151.184;2022-08-24T06:07:53;16.90;99.90
16441;DHT22;8330;-33.858;151.184;2022-08-24T06:10:24;16.90;99.90
16441;DHT22;8330;-33.858;151.184;2022-08-24T06:12:58;16.80;99.90
16441;DHT22;8330;-33.858;151.184;2022-08-24T06:15:28;16.90;99.90
16441;DHT22;8330;-33.858;151.184;2022-08-24T06:17:59;17.00;99.90
16441;DHT22;8330;-33.858;151.184;2022-08-24T06:20:30;17.00;99.90
16441;DHT22;8330;-33.858;151.184;2022-08-24T06:23:01;17.10;99.90
16441;DHT22;8330;-33.858;151.184;2022-08-24T06:25:32;17.10;99.90
16441;DHT22;8330;-33.858;151.184;2022-08-24T06:28:20;17.20;99.90
16441;DHT22;8330;-33.858;151.184;2022-08-24T06:31:01;17.20;99.90
16441;DHT22;8330;-33.858;151.184;2022-08-24T06:33:32;17.20;99.90
16441;DHT22;8330;-33.858;151.184;2022-08-24T06:36:03;17.30;99.90
16441;DHT22;8330;-33.858;151.184;2022-08-24T06:38:34;17.40;99.90
16441;DHT22;8330;-33.858;151.184;2022-08-24T06:41:05;17.50;99.90
16441;DHT22;8330;-33.858;151.184;2022-08-24T06:43:38;17.60;99.90
16441;DHT22;8330;-33.858;151.184;2022-08-24T06:46:09;17.50;99.90
16441;DHT22;8330;-33.858;151.184;2022-08-24T06:48:40;17.50;99.90
16441;DHT22;8330;-33.858;151.184;2022-08-24T06:51:12;17.40;99.90
16441;DHT22;8330;-33.858;151.184;2022-08-24T06:53:43;17.20;99.90
16441;DHT22;8330;-33.858;151.184;2022-08-24T06:56:14;17.10;99.90
16441;DHT22;8330;-33.858;151.184;2022-08-24T06:58:47;16.90;99.90
16441;DHT22;8330;-33.858;151.184;2022-08-24T07:01:20;16.80;99.90
16441;DHT22;8330;-33.858;151.184;2022-08-24T07:03:52;16.70;99.90
16441;DHT22;8330;-33.858;151.184;2022-08-24T07:06:23;16.60;99.90
16441;DHT22;8330;-33.858;151.184;2022-08-24T07:08:54;16.50;99.90
16441;DHT22;8330;-33.858;151.184;2022-08-24T07:11:25;16.40;99.90
16441;DHT22;8330;-33.858;151.184;2022-08-24T07:13:58;16.40;99.90
16441;DHT22;8330;-33.858;151.184;2022-08-24T07:16:29;16.20;99.90
16441;DHT22;8330;-33.858;151.184;2022-08-24T07:19:00;16.20;99.90
16441;DHT22;8330;-33.858;151.184;2022-08-24T07:21:31;16.10;99.90
16441;DHT22;8330;-33.858;151.184;2022-08-24T07:24:02;16.10;99.90
16441;DHT22;8330;-33.858;151.184;2022-08-24T07:26:34;15.90;99.90
16441;DHT22;8330;-33.858;151.184;2022-08-24T07:29:10;15.90;99.90
16441;DHT22;8330;-33.858;151.184;2022-08-24T07:31:42;15.80;99.90
16441;DHT22;8330;-33.858;151.184;2022-08-24T07:34:13;15.70;99.90
16441;DHT22;8330;-33.858;151.184;2022-08-24T07:36:44;15.60;99.90
16441;DHT22;8330;-33.858;151.184;2022-08-24T07:39:15;15.60;99.90
16441;DHT22;8330;-33.858;151.184;2022-08-24T07:41:45;15.60;99.90
16441;DHT22;8330;-33.858;151.184;2022-08-24T07:44:19;15.50;99.90
16441;DHT22;8330;-33.858;151.184;2022-08-24T07:46:49;15.50;99.90
16441;DHT22;8330;-33.858;151.184;2022-08-24T07:49:20;15.40;99.90
16441;DHT22;8330;-33.858;151.184;2022-08-24T07:51:53;15.40;99.90
16441;DHT22;8330;-33.858;151.184;2022-08-24T07:54:24;15.30;99.90
16441;DHT22;8330;-33.858;151.184;2022-08-24T07:56:57;15.20;99.90
16441;DHT22;8330;-33.858;151.184;2022-08-24T07:59:30;15.20;99.90
16441;DHT22;8330;-33.858;151.184;2022-08-24T08:02:01;15.20;99.90
16441;DHT22;8330;-33.858;151.184;2022-08-24T08:04:32;15.10;99.90
16441;DHT22;8330;-33.858;151.184;2022-08-24T08:07:03;15.10;99.90
16441;DHT22;8330;-33.858;151.184;2022-08-24T08:09:35;15.10;99.90
16441;DHT22;8330;-33.858;151.184;2022-08-24T08:12:07;15.00;99.90
16441;DHT22;8330;-33.858;151.184;2022-08-24T08:14:41;15.10;99.90
16441;DHT22;8330;-33.858;151.184;2022-08-24T08:17:12;15.10;99.90
16441;DHT22;8330;-33.858;151.184;2022-08-24T08:19:43;15.00;99.90
16441;DHT22;8330;-33.858;151.184;2022-08-24T08:22:14;15.00;99.90
16441;DHT22;8330;-33.858;151.184;2022-08-24T08:25:00;15.00;99.90
16441;DHT22;8330;-33.858;151.184;2022-08-24T08:27:32;15.00;99.90
16441;DHT22;8330;-33.858;151.184;2022-08-24T08:30:05;15.00;99.90
16441;DHT22;8330;-33.858;151.184;2022-08-24T08:32:36;15.00;99.90
16441;DHT22;8330;-33.858;151.184;2022-08-24T08:35:12;15.00;99.90
16441;DHT22;8330;-33.858;151.184;2022-08-24T08:37:43;14.90;99.90
16441;DHT22;8330;-33.858;151.184;2022-08-24T08:40:31;14.90;99.90
16441;DHT22;8330;-33.858;151.184;2022-08-24T08:43:15;14.90;99.90
16441;DHT22;8330;-33.858;151.184;2022-08-24T08:46:14;14.90;99.90
16441;DHT22;8330;-33.858;151.184;2022-08-24T08:49:14;14.80;99.90
16441;DHT22;8330;-33.858;151.184;2022-08-24T08:54:57;14.80;99.90
16441;DHT22;8330;-33.858;151.184;2022-08-24T08:57:53;14.80;99.90
16441;DHT22;8330;-33.858;151.184;2022-08-24T09:00:34;14.70;99.90
16441;DHT22;8330;-33.858;151.184;2022-08-24T09:03:31;14.70;99.90
16441;DHT22;8330;-33.858;151.184;2022-08-24T09:06:23;14.70;99.90
16441;DHT22;8330;-33.858;151.184;2022-08-24T09:11:58;14.70;99.90
16441;DHT22;8330;-33.858;151.184;2022-08-24T09:17:52;14.60;99.90
16441;DHT22;8330;-33.858;151.184;2022-08-24T09:20:49;14.60;99.90
16441;DHT22;8330;-33.858;151.184;2022-08-24T09:23:28;14.60;99.90
16441;DHT22;8330;-33.858;151.184;2022-08-24T09:26:03;14.50;99.90
16441;DHT22;8330;-33.858;151.184;2022-08-24T09:28:41;14.50;99.90
16441;DHT22;8330;-33.858;151.184;2022-08-24T09:31:30;14.50;99.90
16441;DHT22;8330;-33.858;151.184;2022-08-24T09:34:21;14.40;99.90
16441;DHT22;8330;-33.858;151.184;2022-08-24T09:37:08;14.50;99.90
16441;DHT22;8330;-33.858;151.184;2022-08-24T09:39:59;14.40;99.90
16441;DHT22;8330;-33.858;151.184;2022-08-24T09:46:12;14.40;99.90
16441;DHT22;8330;-33.858;151.184;2022-08-24T09:52:44;14.40;99.90
16441;DHT22;8330;-33.858;151.184;2022-08-24T09:56:00;14.40;99.90
16441;DHT22;8330;-33.858;151.184;2022-08-24T09:58:46;14.30;99.90
16441;DHT22;8330;-33.858;151.184;2022-08-24T10:01:30;14.30;99.90
16441;DHT22;8330;-33.858;151.184;2022-08-24T10:04:16;14.20;99.90
16441;DHT22;8330;-33.858;151.184;2022-08-24T10:07:01;14.20;99.90
16441;DHT22;8330;-33.858;151.184;2022-08-24T10:10:02;14.10;99.90
16441;DHT22;8330;-33.858;151.184;2022-08-24T10:12:48;14.10;99.90
16441;DHT22;8330;-33.858;151.184;2022-08-24T10:15:27;14.00;99.90
16441;DHT22;8330;-33.858;151.184;2022-08-24T10:18:21;14.00;99.90
16441;DHT22;8330;-33.858;151.184;2022-08-24T10:21:07;13.90;99.90
16441;DHT22;8330;-33.858;151.184;2022-08-24T10:23:53;13.80;99.90
16441;DHT22;8330;-33.858;151.184;2022-08-24T10:26:38;13.70;99.90
16441;DHT22;8330;-33.858;151.184;2022-08-24T10:29:21;13.80;99.90
16441;DHT22;8330;-33.858;151.184;2022-08-24T10:32:15;13.70;99.90
16441;DHT22;8330;-33.858;151.184;2022-08-24T10:34:59;13.70;99.90
16441;DHT22;8330;-33.858;151.184;2022-08-24T10:37:52;13.60;99.90
16441;DHT22;8330;-33.858;151.184;2022-08-24T10:40:55;13.60;99.90
16441;DHT22;8330;-33.858;151.184;2022-08-24T10:43:58;13.50;99.90
16441;DHT22;8330;-33.858;151.184;2022-08-24T10:46:49;13.50;99.90
16441;DHT22;8330;-33.858;151.184;2022-08-24T10:55:32;13.50;99.90
16441;DHT22;8330;-33.858;151.184;2022-08-24T10:58:32;13.40;99.90
16441;DHT22;8330;-33.858;151.184;2022-08-24T11:01:23;13.40;99.90
16441;DHT22;8330;-33.858;151.184;2022-08-24T11:03:59;13.30;99.90
16441;DHT22;8330;-33.858;151.184;2022-08-24T11:06:31;13.40;99.90
16441;DHT22;8330;-33.858;151.184;2022-08-24T11:09:06;13.40;99.90
16441;DHT22;8330;-33.858;151.184;2022-08-24T11:11:38;13.40;99.90
16441;DHT22;8330;-33.858;151.184;2022-08-24T11:14:22;13.30;99.90
16441;DHT22;8330;-33.858;151.184;2022-08-24T11:17:14;13.30;99.90
16441;DHT22;8330;-33.858;151.184;2022-08-24T11:19:46;13.30;99.90
16441;DHT22;8330;-33.858;151.184;2022-08-24T11:22:34;13.30;99.90
16441;DHT22;8330;-33.858;151.184;2022-08-24T11:25:18;13.30;99.90
16441;DHT22;8330;-33.858;151.184;2022-08-24T11:27:51;13.30;99.90
16441;DHT22;8330;-33.858;151.184;2022-08-24T11:30:28;13.30;99.90
16441;DHT22;8330;-33.858;151.184;2022-08-24T11:33:02;13.30;99.90
16441;DHT22;8330;-33.858;151.184;2022-08-24T11:35:36;13.20;99.90
16441;DHT22;8330;-33.858;151.184;2022-08-24T11:38:15;13.30;99.90
16441;DHT22;8330;-33.858;151.184;2022-08-24T11:40:51;13.20;99.90
16441;DHT22;8330;-33.858;151.184;2022-08-24T11:43:32;13.20;99.90
16441;DHT22;8330;-33.858;151.184;2022-08-24T11:46:14;13.20;99.90
16441;DHT22;8330;-33.858;151.184;2022-08-24T11:48:55;13.20;99.90
16441;DHT22;8330;-33.858;151.184;2022-08-24T11:51:40;13.20;99.90
16441;DHT22;8330;-33.858;151.184;2022-08-24T11:54:18;13.10;99.90
16441;DHT22;8330;-33.858;151.184;2022-08-24T11:57:06;13.20;99.90
16441;DHT22;8330;-33.858;151.184;2022-08-24T11:59:44;13.10;99.90
16441;DHT22;8330;-33.858;151.184;2022-08-24T12:02:25;13.10;99.90
16441;DHT22;8330;-33.858;151.184;2022-08-24T12:05:06;13.10;99.90
16441;DHT22;8330;-33.858;151.184;2022-08-24T12:07:48;13.10;99.90
16441;DHT22;8330;-33.858;151.184;2022-08-24T12:10:28;13.00;99.90
16441;DHT22;8330;-33.858;151.184;2022-08-24T12:13:05;13.00;99.90
16441;DHT22;8330;-33.858;151.184;2022-08-24T12:15:47;13.00;99.90
16441;DHT22;8330;-33.858;151.184;2022-08-24T12:18:26;13.10;99.90
16441;DHT22;8330;-33.858;151.184;2022-08-24T12:21:01;13.00;99.90
16441;DHT22;8330;-33.858;151.184;2022-08-24T12:23:35;13.00;99.90
16441;DHT22;8330;-33.858;151.184;2022-08-24T12:26:11;12.90;99.90
16441;DHT22;8330;-33.858;151.184;2022-08-24T12:28:46;12.90;99.90
16441;DHT22;8330;-33.858;151.184;2022-08-24T12:31:21;12.80;99.90
16441;DHT22;8330;-33.858;151.184;2022-08-24T12:33:56;12.90;99.90
16441;DHT22;8330;-33.858;151.184;2022-08-24T12:36:32;12.80;99.90
16441;DHT22;8330;-33.858;151.184;2022-08-24T12:39:09;12.80;99.90
16441;DHT22;8330;-33.858;151.184;2022-08-24T12:41:55;12.80;99.90
16441;DHT22;8330;-33.858;151.184;2022-08-24T12:44:34;12.80;99.90
16441;DHT22;8330;-33.858;151.184;2022-08-24T12:47:08;12.70;99.90
16441;DHT22;8330;-33.858;151.184;2022-08-24T12:49:44;12.60;99.90
16441;DHT22;8330;-33.858;151.184;2022-08-24T12:52:40;12.70;99.90
16441;DHT22;8330;-33.858;151.184;2022-08-24T12:55:38;12.70;99.90
16441;DHT22;8330;-33.858;151.184;2022-08-24T12:58:29;12.70;99.90
16441;DHT22;8330;-33.858;151.184;2022-08-24T13:01:05;12.70;99.90
16441;DHT22;8330;-33.858;151.184;2022-08-24T13:03:39;12.50;99.90
16441;DHT22;8330;-33.858;151.184;2022-08-24T13:06:17;12.50;99.90
16441;DHT22;8330;-33.858;151.184;2022-08-24T13:08:53;12.50;99.90
16441;DHT22;8330;-33.858;151.184;2022-08-24T13:11:34;12.60;99.90
16441;DHT22;8330;-33.858;151.184;2022-08-24T13:14:23;12.60;99.90
16441;DHT22;8330;-33.858;151.184;2022-08-24T13:17:09;12.50;99.90
16441;DHT22;8330;-33.858;151.184;2022-08-24T13:19:43;12.50;99.90
16441;DHT22;8330;-33.858;151.184;2022-08-24T13:22:37;12.50;99.90
16441;DHT22;8330;-33.858;151.184;2022-08-24T13:25:50;12.50;99.90
16441;DHT22;8330;-33.858;151.184;2022-08-24T13:28:38;12.50;99.90
16441;DHT22;8330;-33.858;151.184;2022-08-24T13:31:23;12.40;99.90
16441;DHT22;8330;-33.858;151.184;2022-08-24T13:33:59;12.40;99.90
16441;DHT22;8330;-33.858;151.184;2022-08-24T13:37:11;12.40;99.90
16441;DHT22;8330;-33.858;151.184;2022-08-24T13:43:09;12.40;99.90
16441;DHT22;8330;-33.858;151.184;2022-08-24T13:45:45;12.40;99.90
16441;DHT22;8330;-33.858;151.184;2022-08-24T13:48:27;12.40;99.90
16441;DHT22;8330;-33.858;151.184;2022-08-24T13:51:18;12.40;99.90
16441;DHT22;8330;-33.858;151.184;2022-08-24T13:54:09;12.30;99.90
16441;DHT22;8330;-33.858;151.184;2022-08-24T13:57:02;12.30;99.90
16441;DHT22;8330;-33.858;151.184;2022-08-24T13:59:55;12.20;99.90
16441;DHT22;8330;-33.858;151.184;2022-08-24T14:02:38;12.30;99.90
16441;DHT22;8330;-33.858;151.184;2022-08-24T14:05:23;12.30;99.90
16441;DHT22;8330;-33.858;151.184;2022-08-24T14:08:16;12.20;99.90
16441;DHT22;8330;-33.858;151.184;2022-08-24T14:10:58;12.20;99.90
16441;DHT22;8330;-33.858;151.184;2022-08-24T14:13:52;12.20;99.90
16441;DHT22;8330;-33.858;151.184;2022-08-24T14:16:43;12.20;99.90
16441;DHT22;8330;-33.858;151.184;2022-08-24T14:19:41;12.30;99.90
16441;DHT22;8330;-33.858;151.184;2022-08-24T14:30:51;12.30;99.90
16441;DHT22;8330;-33.858;151.184;2022-08-24T14:33:52;12.30;99.90
16441;DHT22;8330;-33.858;151.184;2022-08-24T14:36:41;12.20;99.90
16441;DHT22;8330;-33.858;151.184;2022-08-24T14:39:23;12.20;99.90
16441;DHT22;8330;-33.858;151.184;2022-08-24T14:42:06;12.20;99.90
16441;DHT22;8330;-33.858;151.184;2022-08-24T14:45:00;12.10;99.90
16441;DHT22;8330;-33.858;151.184;2022-08-24T14:47:45;12.10;99.90
16441;DHT22;8330;-33.858;151.184;2022-08-24T14:50:27;12.10;99.90
16441;DHT22;8330;-33.858;151.184;2022-08-24T14:53:17;12.10;99.90
16441;DHT22;8330;-33.858;151.184;2022-08-24T14:55:58;12.10;99.90
16441;DHT22;8330;-33.858;151.184;2022-08-24T14:58:41;12.10;99.90
16441;DHT22;8330;-33.858;151.184;2022-08-24T15:01:39;12.10;99.90
16441;DHT22;8330;-33.858;151.184;2022-08-24T15:04:32;12.10;99.90
16441;DHT22;8330;-33.858;151.184;2022-08-24T15:07:23;12.10;99.90
16441;DHT22;8330;-33.858;151.184;2022-08-24T15:09:54;12.10;99.90
16441;DHT22;8330;-33.858;151.184;2022-08-24T15:18:23;12.00;99.90
16441;DHT22;8330;-33.858;151.184;2022-08-24T15:21:07;11.90;99.90
16441;DHT22;8330;-33.858;151.184;2022-08-24T15:23:51;11.90;99.90
16441;DHT22;8330;-33.858;151.184;2022-08-24T15:26:31;11.90;99.90
16441;DHT22;8330;-33.858;151.184;2022-08-24T15:29:10;12.00;99.90
16441;DHT22;8330;-33.858;151.184;2022-08-24T15:31:53;12.00;99.90
16441;DHT22;8330;-33.858;151.184;2022-08-24T15:34:38;12.00;99.90
16441;DHT22;8330;-33.858;151.184;2022-08-24T15:37:10;12.00;99.90
16441;DHT22;8330;-33.858;151.184;2022-08-24T15:39:44;11.90;99.90
16441;DHT22;8330;-33.858;151.184;2022-08-24T15:42:15;12.00;99.90
16441;DHT22;8330;-33.858;151.184;2022-08-24T15:44:47;12.00;99.90
16441;DHT22;8330;-33.858;151.184;2022-08-24T15:47:26;12.00;99.90
16441;DHT22;8330;-33.858;151.184;2022-08-24T15:50:00;12.00;99.90
16441;DHT22;8330;-33.858;151.184;2022-08-24T15:52:46;12.00;99.90
16441;DHT22;8330;-33.858;151.184;2022-08-24T15:55:34;12.00;99.90
16441;DHT22;8330;-33.858;151.184;2022-08-24T15:58:30;12.00;99.90
16441;DHT22;8330;-33.858;151.184;2022-08-24T16:04:04;12.10;99.90
16441;DHT22;8330;-33.858;151.184;2022-08-24T16:06:39;12.10;99.90
16441;DHT22;8330;-33.858;151.184;2022-08-24T16:09:13;12.10;99.90
16441;DHT22;8330;-33.858;151.184;2022-08-24T16:12:05;12.10;99.90
16441;DHT22;8330;-33.858;151.184;2022-08-24T16:14:39;12.10;99.90
16441;DHT22;8330;-33.858;151.184;2022-08-24T16:17:34;12.10;99.90
16441;DHT22;8330;-33.858;151.184;2022-08-24T16:20:10;12.00;99.90
16441;DHT22;8330;-33.858;151.184;2022-08-24T16:22:51;12.00;99.90
16441;DHT22;8330;-33.858;151.184;2022-08-24T16:25:25;12.00;99.90
16441;DHT22;8330;-33.858;151.184;2022-08-24T16:28:02;12.00;99.90
16441;DHT22;8330;-33.858;151.184;2022-08-24T16:30:42;12.00;99.90
16441;DHT22;8330;-33.858;151.184;2022-08-24T16:33:36;12.00;99.90
16441;DHT22;8330;-33.858;151.184;2022-08-24T16:36:09;12.00;99.90
16441;DHT22;8330;-33.858;151.184;2022-08-24T16:38:43;12.00;99.90
16441;DHT22;8330;-33.858;151.184;2022-08-24T16:41:16;12.00;99.90
16441;DHT22;8330;-33.858;151.184;2022-08-24T16:43:49;12.00;99.90
16441;DHT22;8330;-33.858;151.184;2022-08-24T16:46:22;12.00;99.90